ADDS TAF Board (Experimental) INFO

IDs: Format: Expanded Condensed

Updated at: 1057 UTC 28 Nov 2014

KMSP - Minneapolis-St Paul, MN, US

Issued at 0852 UTC 28 Nov 2014
Time1053Z28/11Z28/12Z28/13Z28/14Z28/15Z28/16Z28/17Z28/18Z28/19Z28/20Z28/21Z28/22Z28/23Z
TypeOBSPRVLPRVLPRVLPRVLPRVLPRVLPRVL
  [TEMP]  
PRVL
  [TEMP]  
PRVL
  [TEMP]  
PRVLPRVLPRVLPRVL
VIS106666666
  [4]  
6
  [4]  
6
  [4]  
>6>6>6>6
CIG8560606060404040
  [20]  
40
  [20]  
40
  [20]  
18181818
CoverOVCOVCOVCOVCOVCOVCOVCOVC
  [BKN]  
OVC
  [BKN]  
OVC
  [BKN]  
OVCOVCOVCOVC
FltCat--VFRVFRVFRVFRVFRVFRVFR
  [MVFR]  
VFR
  [MVFR]  
VFR
  [MVFR]  
MVFRMVFRMVFRMVFR
WX--BRBRBRBRBRBRBR
  [-FZDZ PL BR]  
BR
  [-FZDZ PL BR]  
BR
  [-FZDZ PL BR]  
--------
WDir130130130130130120120120
[120]
120
[120]
120
[120]
110110110110
WSpd89999666
  [6]  
6
  [6]  
6
  [6]  
5555
WGst----------------
  [--]  
--
  [--]  
--
  [--]  
--------
R04/22
XWnd-8-9-9-9-9-6-6-6-6-6-5-5-5-5
XGst--------------000--------
HWnd11111222222222
HGst--------------000--------
R12/30
XWnd-1-1-1-1-1000001111
XGst--------------000--------
HWnd89999666665555
HGst--------------000--------
R17/35
XWnd56666555554444
XGst--------------000--------
HWnd67777444443333
HGst--------------000--------
Raw TAF
KMSP 280852Z 2809/2912 13009KT 6SM BR SCT020 OVC060
  FM281500 12006KT 6SM BR SCT015 OVC040
  TEMPO 2817/2820 4SM -FZDZPL BR BKN020
  FM282000 11005KT P6SM SCT009 OVC018
  FM290200 12006KT P6SM SCT015 OVC035


Raw METAR
KMSP 281053Z 13008KT 10SM OVC085 M12/M14 A3007 RMK AO2 SLP201 T11171139
KMSP 280953Z 12010KT 10SM BKN070 OVC090 M12/M14 A3010 RMK AO2 SLP211 T11221144

TAF Board Legend

Hazard VFR MVFR IFR LIFR
Visibility (sm) >5 3≤X≤5 1≤X<3 <1
Ceiling (100 ft) >30 10≤X≤30 5≤X<10 <5
Wind Speed (kt) <10 10≤X<20 20≤X<30 ≥30
Wind Gust (kt) <15 15≤X<25 25≤X<35 ≥35
Weather No Wx Reported VCTS,-TS,-FZRA TS,FZRA +TS,+FZRA


Page loaded:  10:57 UTC  |   02:57 AM Pacific  |   03:57 AM Mountain  |   04:57 AM Central  |   05:57 AM Eastern

 

ADVISORIES

FORECASTS

FORECASTS

OBSERVATIONS

USER TOOLS

ABOUT US